sensor_id;sensor_type;location;lat;lon;timestamp;pressure;altitude;pressure_sealevel;temperature;humidity
73024;BME280;61199;47.526;8.538;2023-04-04T00:01:52;96899.09;;;5.15;48.69
73024;BME280;61199;47.526;8.538;2023-04-04T00:04:18;96897.16;;;5.19;48.93
73024;BME280;61199;47.526;8.538;2023-04-04T00:06:45;96893.06;;;5.01;48.50
73024;BME280;61199;47.526;8.538;2023-04-04T00:09:12;96904.09;;;4.75;49.19
73024;BME280;61199;47.526;8.538;2023-04-04T00:11:39;96897.69;;;4.66;49.27
73024;BME280;61199;47.526;8.538;2023-04-04T00:14:07;96893.13;;;4.70;49.84
73024;BME280;61199;47.526;8.538;2023-04-04T00:16:33;96883.78;;;4.67;49.77
73024;BME280;61199;47.526;8.538;2023-04-04T00:19:00;96890.94;;;4.48;50.66
73024;BME280;61199;47.526;8.538;2023-04-04T00:21:27;96899.34;;;4.67;50.45
73024;BME280;61199;47.526;8.538;2023-04-04T00:23:56;96890.16;;;4.62;49.85
73024;BME280;61199;47.526;8.538;2023-04-04T00:26:23;96887.66;;;4.60;50.23
73024;BME280;61199;47.526;8.538;2023-04-04T00:28:50;96895.06;;;4.37;50.29
73024;BME280;61199;47.526;8.538;2023-04-04T00:31:16;96888.88;;;4.39;51.02
73024;BME280;61199;47.526;8.538;2023-04-04T00:33:43;96886.63;;;4.18;51.05
73024;BME280;61199;47.526;8.538;2023-04-04T00:36:09;96887.44;;;4.18;50.93
73024;BME280;61199;47.526;8.538;2023-04-04T00:38:36;96895.59;;;4.12;51.66
73024;BME280;61199;47.526;8.538;2023-04-04T00:41:02;96885.72;;;4.19;51.78
73024;BME280;61199;47.526;8.538;2023-04-04T00:43:31;96894.56;;;4.30;51.25
73024;BME280;61199;47.526;8.538;2023-04-04T00:45:58;96899.91;;;3.96;51.91
73024;BME280;61199;47.526;8.538;2023-04-04T00:48:25;96891.72;;;4.19;51.84
73024;BME280;61199;47.526;8.538;2023-04-04T00:50:51;96888.06;;;4.08;52.24
73024;BME280;61199;47.526;8.538;2023-04-04T00:53:18;96888.03;;;4.23;51.39
73024;BME280;61199;47.526;8.538;2023-04-04T00:55:44;96893.50;;;4.03;51.92
73024;BME280;61199;47.526;8.538;2023-04-04T00:58:11;96891.06;;;4.16;51.89
73024;BME280;61199;47.526;8.538;2023-04-04T01:00:38;96890.28;;;3.67;53.30
73024;BME280;61199;47.526;8.538;2023-04-04T01:03:05;96893.31;;;3.91;52.93
73024;BME280;61199;47.526;8.538;2023-04-04T01:05:33;96895.97;;;4.05;52.14
73024;BME280;61199;47.526;8.538;2023-04-04T01:08:00;96891.72;;;3.88;52.67
73024;BME280;61199;47.526;8.538;2023-04-04T01:10:29;96894.50;;;3.85;53.13
73024;BME280;61199;47.526;8.538;2023-04-04T01:12:55;96898.06;;;3.98;52.95
73024;BME280;61199;47.526;8.538;2023-04-04T01:15:22;96890.97;;;3.86;53.50
73024;BME280;61199;47.526;8.538;2023-04-04T01:17:50;96890.81;;;3.89;53.05
73024;BME280;61199;47.526;8.538;2023-04-04T01:20:24;96895.50;;;3.98;52.78
73024;BME280;61199;47.526;8.538;2023-04-04T01:22:51;96891.41;;;3.94;53.22
73024;BME280;61199;47.526;8.538;2023-04-04T01:25:27;96883.53;;;3.80;53.94
73024;BME280;61199;47.526;8.538;2023-04-04T01:27:55;96893.31;;;3.75;53.64
73024;BME280;61199;47.526;8.538;2023-04-04T01:30:22;96877.84;;;3.74;53.54
73024;BME280;61199;47.526;8.538;2023-04-04T01:32:56;96886.97;;;3.81;53.34
73024;BME280;61199;47.526;8.538;2023-04-04T01:35:31;96879.59;;;3.73;54.48
73024;BME280;61199;47.526;8.538;2023-04-04T01:38:10;96878.34;;;3.80;54.05
73024;BME280;61199;47.526;8.538;2023-04-04T01:40:40;96883.69;;;3.93;53.50
73024;BME280;61199;47.526;8.538;2023-04-04T01:43:11;96882.28;;;3.72;54.34
73024;BME280;61199;47.526;8.538;2023-04-04T01:45:39;96875.72;;;3.49;54.38
73024;BME280;61199;47.526;8.538;2023-04-04T01:48:05;96881.91;;;3.62;53.96
73024;BME280;61199;47.526;8.538;2023-04-04T01:50:33;96879.75;;;3.70;54.20
73024;BME280;61199;47.526;8.538;2023-04-04T01:52:59;96880.00;;;3.81;53.71
73024;BME280;61199;47.526;8.538;2023-04-04T01:55:26;96884.44;;;3.79;53.95
73024;BME280;61199;47.526;8.538;2023-04-04T01:57:53;96882.97;;;3.91;53.96
73024;BME280;61199;47.526;8.538;2023-04-04T02:00:19;96876.25;;;3.87;53.57
73024;BME280;61199;47.526;8.538;2023-04-04T02:02:46;96874.44;;;3.89;53.20
73024;BME280;61199;47.526;8.538;2023-04-04T02:05:12;96882.03;;;3.92;53.43
73024;BME280;61199;47.526;8.538;2023-04-04T02:07:39;96880.00;;;3.97;53.10
73024;BME280;61199;47.526;8.538;2023-04-04T02:10:06;96878.03;;;3.86;53.53
73024;BME280;61199;47.526;8.538;2023-04-04T02:12:32;96879.44;;;3.76;53.84
73024;BME280;61199;47.526;8.538;2023-04-04T02:14:58;96874.34;;;3.75;54.11
73024;BME280;61199;47.526;8.538;2023-04-04T02:17:25;96879.00;;;3.68;54.08
73024;BME280;61199;47.526;8.538;2023-04-04T02:19:53;96874.59;;;3.70;53.42
73024;BME280;61199;47.526;8.538;2023-04-04T02:22:20;96875.25;;;3.58;53.89
73024;BME280;61199;47.526;8.538;2023-04-04T02:24:46;96875.00;;;3.78;53.77
73024;BME280;61199;47.526;8.538;2023-04-04T02:27:13;96874.31;;;3.59;54.02
73024;BME280;61199;47.526;8.538;2023-04-04T02:29:39;96874.75;;;3.67;53.79
73024;BME280;61199;47.526;8.538;2023-04-04T02:32:06;96872.16;;;3.83;53.45
73024;BME280;61199;47.526;8.538;2023-04-04T02:34:32;96878.19;;;3.83;53.58
73024;BME280;61199;47.526;8.538;2023-04-04T02:36:59;96874.69;;;3.84;53.46
73024;BME280;61199;47.526;8.538;2023-04-04T02:39:25;96878.78;;;3.88;53.04
73024;BME280;61199;47.526;8.538;2023-04-04T02:41:51;96870.16;;;3.72;52.94
73024;BME280;61199;47.526;8.538;2023-04-04T02:44:18;96876.59;;;3.96;52.79
73024;BME280;61199;47.526;8.538;2023-04-04T02:46:44;96871.50;;;3.79;53.25
73024;BME280;61199;47.526;8.538;2023-04-04T02:49:11;96870.06;;;3.89;52.97
73024;BME280;61199;47.526;8.538;2023-04-04T02:51:37;96874.44;;;3.89;52.92
73024;BME280;61199;47.526;8.538;2023-04-04T02:54:04;96865.50;;;3.79;53.30
73024;BME280;61199;47.526;8.538;2023-04-04T02:56:30;96861.63;;;3.70;53.41
73024;BME280;61199;47.526;8.538;2023-04-04T02:58:57;96868.47;;;3.87;52.66
73024;BME280;61199;47.526;8.538;2023-04-04T03:01:24;96869.47;;;3.69;52.58
73024;BME280;61199;47.526;8.538;2023-04-04T03:03:51;96870.00;;;3.75;53.00
73024;BME280;61199;47.526;8.538;2023-04-04T03:06:17;96868.34;;;3.74;52.65
73024;BME280;61199;47.526;8.538;2023-04-04T03:08:44;96870.63;;;3.48;53.40
73024;BME280;61199;47.526;8.538;2023-04-04T03:11:10;96874.38;;;3.42;53.69
73024;BME280;61199;47.526;8.538;2023-04-04T03:13:37;96868.03;;;3.15;54.48
73024;BME280;61199;47.526;8.538;2023-04-04T03:16:04;96861.44;;;3.42;54.24
73024;BME280;61199;47.526;8.538;2023-04-04T03:18:33;96871.19;;;3.37;53.68
73024;BME280;61199;47.526;8.538;2023-04-04T03:20:59;96874.06;;;3.48;54.20
73024;BME280;61199;47.526;8.538;2023-04-04T03:23:26;96861.13;;;3.48;54.01
73024;BME280;61199;47.526;8.538;2023-04-04T03:25:52;96866.09;;;3.36;53.83
73024;BME280;61199;47.526;8.538;2023-04-04T03:28:20;96865.75;;;3.42;53.94
73024;BME280;61199;47.526;8.538;2023-04-04T03:30:46;96861.75;;;3.36;54.26
73024;BME280;61199;47.526;8.538;2023-04-04T03:33:13;96858.59;;;3.47;53.49
73024;BME280;61199;47.526;8.538;2023-04-04T03:35:40;96858.44;;;3.50;53.50
73024;BME280;61199;47.526;8.538;2023-04-04T03:38:07;96857.56;;;3.66;53.44
73024;BME280;61199;47.526;8.538;2023-04-04T03:40:35;96853.25;;;3.50;53.31
73024;BME280;61199;47.526;8.538;2023-04-04T03:43:01;96858.13;;;3.56;53.43
73024;BME280;61199;47.526;8.538;2023-04-04T03:45:28;96857.13;;;3.58;52.89
73024;BME280;61199;47.526;8.538;2023-04-04T03:47:57;96861.13;;;3.48;53.18
73024;BME280;61199;47.526;8.538;2023-04-04T03:50:24;96857.59;;;3.49;53.10
73024;BME280;61199;47.526;8.538;2023-04-04T03:52:50;96860.69;;;3.08;53.95
73024;BME280;61199;47.526;8.538;2023-04-04T03:55:17;96857.28;;;3.23;53.79
73024;BME280;61199;47.526;8.538;2023-04-04T03:57:43;96858.31;;;3.20;53.67
73024;BME280;61199;47.526;8.538;2023-04-04T04:00:10;96856.66;;;3.02;54.23
73024;BME280;61199;47.526;8.538;2023-04-04T04:02:37;96860.53;;;2.94;54.57
73024;BME280;61199;47.526;8.538;2023-04-04T04:05:04;96863.59;;;2.85;54.72
73024;BME280;61199;47.526;8.538;2023-04-04T04:07:30;96858.25;;;3.05;53.92
73024;BME280;61199;47.526;8.538;2023-04-04T04:09:56;96860.81;;;3.05;53.89
73024;BME280;61199;47.526;8.538;2023-04-04T04:12:24;96869.59;;;3.02;54.09
73024;BME280;61199;47.526;8.538;2023-04-04T04:14:51;96873.47;;;2.94;54.37
73024;BME280;61199;47.526;8.538;2023-04-04T04:17:18;96861.06;;;3.00;53.61
73024;BME280;61199;47.526;8.538;2023-04-04T04:19:45;96864.59;;;2.82;54.12
73024;BME280;61199;47.526;8.538;2023-04-04T04:22:11;96869.75;;;2.82;54.47
73024;BME280;61199;47.526;8.538;2023-04-04T04:24:38;96866.63;;;2.93;54.04
73024;BME280;61199;47.526;8.538;2023-04-04T04:27:04;96867.31;;;2.96;53.99
73024;BME280;61199;47.526;8.538;2023-04-04T04:29:32;96863.94;;;2.79;54.84
73024;BME280;61199;47.526;8.538;2023-04-04T04:31:58;96868.63;;;2.54;55.00
73024;BME280;61199;47.526;8.538;2023-04-04T04:34:25;96866.97;;;2.53;54.83
73024;BME280;61199;47.526;8.538;2023-04-04T04:36:51;96868.56;;;2.39;55.87
73024;BME280;61199;47.526;8.538;2023-04-04T04:39:18;96868.97;;;2.13;56.21
73024;BME280;61199;47.526;8.538;2023-04-04T04:41:45;96869.88;;;2.12;56.51
73024;BME280;61199;47.526;8.538;2023-04-04T04:44:12;96877.66;;;1.93;57.29
73024;BME280;61199;47.526;8.538;2023-04-04T04:46:38;96878.28;;;1.98;56.83
73024;BME280;61199;47.526;8.538;2023-04-04T04:49:04;96875.31;;;2.06;56.99
73024;BME280;61199;47.526;8.538;2023-04-04T04:51:31;96879.22;;;2.14;56.59
73024;BME280;61199;47.526;8.538;2023-04-04T04:53:58;96879.19;;;1.97;56.78
73024;BME280;61199;47.526;8.538;2023-04-04T04:56:24;96880.66;;;1.84;57.26
73024;BME280;61199;47.526;8.538;2023-04-04T04:58:50;96886.47;;;1.71;57.96
73024;BME280;61199;47.526;8.538;2023-04-04T05:01:17;96882.00;;;1.74;57.58
73024;BME280;61199;47.526;8.538;2023-04-04T05:03:43;96885.75;;;1.86;58.10
73024;BME280;61199;47.526;8.538;2023-04-04T05:06:09;96876.63;;;1.97;57.40
73024;BME280;61199;47.526;8.538;2023-04-04T05:08:36;96878.38;;;2.14;57.32
73024;BME280;61199;47.526;8.538;2023-04-04T05:11:02;96884.38;;;2.14;56.93
73024;BME280;61199;47.526;8.538;2023-04-04T05:13:31;96888.63;;;1.98;57.26
73024;BME280;61199;47.526;8.538;2023-04-04T05:15:57;96885.59;;;1.89;57.31
73024;BME280;61199;47.526;8.538;2023-04-04T05:18:23;96888.63;;;1.98;57.15
73024;BME280;61199;47.526;8.538;2023-04-04T05:20:55;96890.22;;;2.36;59.27
73024;BME280;61199;47.526;8.538;2023-04-04T05:23:22;96885.56;;;2.43;57.33
73024;BME280;61199;47.526;8.538;2023-04-04T05:25:49;96883.50;;;2.32;56.57
73024;BME280;61199;47.526;8.538;2023-04-04T05:28:16;96887.25;;;2.44;56.01
73024;BME280;61199;47.526;8.538;2023-04-04T05:30:43;96889.22;;;2.39;56.33
73024;BME280;61199;47.526;8.538;2023-04-04T05:33:09;96893.13;;;2.64;55.53
73024;BME280;61199;47.526;8.538;2023-04-04T05:35:36;96896.34;;;2.34;55.98
73024;BME280;61199;47.526;8.538;2023-04-04T05:38:02;96897.88;;;2.21;56.59
73024;BME280;61199;47.526;8.538;2023-04-04T05:40:29;96904.25;;;2.31;56.42
73024;BME280;61199;47.526;8.538;2023-04-04T05:42:56;96901.00;;;2.27;56.15
73024;BME280;61199;47.526;8.538;2023-04-04T05:45:23;96899.66;;;2.02;56.94
73024;BME280;61199;47.526;8.538;2023-04-04T05:47:50;96909.41;;;1.95;57.59
73024;BME280;61199;47.526;8.538;2023-04-04T05:50:16;96903.81;;;2.04;57.22
73024;BME280;61199;47.526;8.538;2023-04-04T05:52:45;96903.09;;;2.01;57.26
73024;BME280;61199;47.526;8.538;2023-04-04T05:55:12;96913.66;;;2.15;56.84
73024;BME280;61199;47.526;8.538;2023-04-04T05:57:46;96905.63;;;2.21;56.81
73024;BME280;61199;47.526;8.538;2023-04-04T06:00:13;96917.63;;;2.22;57.14
73024;BME280;61199;47.526;8.538;2023-04-04T06:02:40;96906.84;;;2.31;56.88
73024;BME280;61199;47.526;8.538;2023-04-04T06:05:07;96909.94;;;2.20;57.40
73024;BME280;61199;47.526;8.538;2023-04-04T06:07:34;96911.50;;;2.06;57.21
73024;BME280;61199;47.526;8.538;2023-04-04T06:10:00;96917.91;;;2.16;57.38
73024;BME280;61199;47.526;8.538;2023-04-04T06:12:27;96909.72;;;2.25;56.92
73024;BME280;61199;47.526;8.538;2023-04-04T06:14:53;96910.53;;;2.08;57.72
73024;BME280;61199;47.526;8.538;2023-04-04T06:17:19;96914.34;;;2.00;57.87
73024;BME280;61199;47.526;8.538;2023-04-04T06:19:46;96907.78;;;2.11;57.79
73024;BME280;61199;47.526;8.538;2023-04-04T06:22:12;96910.91;;;2.18;57.18
73024;BME280;61199;47.526;8.538;2023-04-04T06:24:39;96914.59;;;2.31;57.44
73024;BME280;61199;47.526;8.538;2023-04-04T06:27:05;96922.63;;;2.25;57.64
73024;BME280;61199;47.526;8.538;2023-04-04T06:29:32;96920.16;;;2.05;57.50
73024;BME280;61199;47.526;8.538;2023-04-04T06:31:58;96924.75;;;2.17;57.83
73024;BME280;61199;47.526;8.538;2023-04-04T06:34:24;96916.38;;;2.12;57.68
73024;BME280;61199;47.526;8.538;2023-04-04T06:36:51;96921.81;;;2.24;57.71
73024;BME280;61199;47.526;8.538;2023-04-04T06:39:17;96912.78;;;2.33;57.45
73024;BME280;61199;47.526;8.538;2023-04-04T06:41:44;96920.41;;;2.53;57.07
73024;BME280;61199;47.526;8.538;2023-04-04T06:44:10;96922.88;;;2.37;56.91
73024;BME280;61199;47.526;8.538;2023-04-04T06:46:36;96914.31;;;2.54;56.95
73024;BME280;61199;47.526;8.538;2023-04-04T06:49:04;96913.13;;;2.61;56.96
73024;BME280;61199;47.526;8.538;2023-04-04T06:51:34;96917.78;;;2.71;56.84
73024;BME280;61199;47.526;8.538;2023-04-04T06:54:01;96924.22;;;2.63;56.44
73024;BME280;61199;47.526;8.538;2023-04-04T06:56:27;96923.75;;;2.38;58.01
73024;BME280;61199;47.526;8.538;2023-04-04T06:58:54;96914.91;;;2.42;57.81
73024;BME280;61199;47.526;8.538;2023-04-04T07:01:21;96914.06;;;2.41;57.69
73024;BME280;61199;47.526;8.538;2023-04-04T07:03:47;96922.53;;;2.62;57.29
73024;BME280;61199;47.526;8.538;2023-04-04T07:06:14;96920.53;;;2.33;58.06
73024;BME280;61199;47.526;8.538;2023-04-04T07:08:40;96925.22;;;2.25;58.03
73024;BME280;61199;47.526;8.538;2023-04-04T07:11:07;96928.38;;;2.48;57.56
73024;BME280;61199;47.526;8.538;2023-04-04T07:13:33;96919.13;;;2.61;57.69
73024;BME280;61199;47.526;8.538;2023-04-04T07:16:00;96920.38;;;2.88;56.68
73024;BME280;61199;47.526;8.538;2023-04-04T07:18:27;96920.25;;;2.72;56.72
73024;BME280;61199;47.526;8.538;2023-04-04T07:20:53;96923.94;;;3.02;56.45
73024;BME280;61199;47.526;8.538;2023-04-04T07:23:19;96921.94;;;2.90;56.37
73024;BME280;61199;47.526;8.538;2023-04-04T07:25:46;96934.25;;;2.69;56.59
73024;BME280;61199;47.526;8.538;2023-04-04T07:28:12;96928.81;;;2.75;56.51
73024;BME280;61199;47.526;8.538;2023-04-04T07:30:39;96922.41;;;2.98;56.12
73024;BME280;61199;47.526;8.538;2023-04-04T07:33:06;96918.53;;;3.07;56.23
73024;BME280;61199;47.526;8.538;2023-04-04T07:35:33;96916.94;;;2.87;56.30
73024;BME280;61199;47.526;8.538;2023-04-04T07:37:59;96923.47;;;3.11;56.00
73024;BME280;61199;47.526;8.538;2023-04-04T07:40:26;96916.00;;;3.22;55.82
73024;BME280;61199;47.526;8.538;2023-04-04T07:42:52;96905.19;;;3.47;54.55
73024;BME280;61199;47.526;8.538;2023-04-04T07:45:19;96912.91;;;3.48;54.20
73024;BME280;61199;47.526;8.538;2023-04-04T07:47:47;96915.34;;;3.34;54.90
73024;BME280;61199;47.526;8.538;2023-04-04T07:50:14;96914.13;;;3.41;55.08
73024;BME280;61199;47.526;8.538;2023-04-04T07:52:41;96910.09;;;3.68;54.30
73024;BME280;61199;47.526;8.538;2023-04-04T07:55:13;96913.56;;;4.00;53.37
73024;BME280;61199;47.526;8.538;2023-04-04T07:57:42;96911.03;;;3.83;53.29
73024;BME280;61199;47.526;8.538;2023-04-04T08:00:09;96911.16;;;3.32;52.40
73024;BME280;61199;47.526;8.538;2023-04-04T08:02:36;96911.84;;;3.35;52.96
73024;BME280;61199;47.526;8.538;2023-04-04T08:05:03;96912.00;;;3.32;52.82
73024;BME280;61199;47.526;8.538;2023-04-04T08:07:29;96906.69;;;3.51;52.26
73024;BME280;61199;47.526;8.538;2023-04-04T08:09:56;96904.00;;;3.69;51.61
73024;BME280;61199;47.526;8.538;2023-04-04T08:12:22;96896.91;;;3.88;50.72
73024;BME280;61199;47.526;8.538;2023-04-04T08:14:49;96906.78;;;3.82;51.46
73024;BME280;61199;47.526;8.538;2023-04-04T08:17:16;96899.91;;;3.96;50.35
73024;BME280;61199;47.526;8.538;2023-04-04T08:19:44;96904.13;;;3.99;49.23
73024;BME280;61199;47.526;8.538;2023-04-04T08:22:10;96895.34;;;3.53;49.48
73024;BME280;61199;47.526;8.538;2023-04-04T08:24:37;96900.72;;;3.66;49.67
73024;BME280;61199;47.526;8.538;2023-04-04T08:27:03;96896.72;;;3.76;48.98
73024;BME280;61199;47.526;8.538;2023-04-04T08:29:31;96899.91;;;3.65;49.42
73024;BME280;61199;47.526;8.538;2023-04-04T08:31:58;96897.66;;;3.90;49.43
73024;BME280;61199;47.526;8.538;2023-04-04T08:34:25;96911.97;;;3.97;48.64
73024;BME280;61199;47.526;8.538;2023-04-04T08:36:52;96904.44;;;3.77;48.34
73024;BME280;61199;47.526;8.538;2023-04-04T08:39:18;96911.75;;;3.69;47.60
73024;BME280;61199;47.526;8.538;2023-04-04T08:41:45;96912.94;;;3.79;48.09
73024;BME280;61199;47.526;8.538;2023-04-04T08:44:15;96914.78;;;4.08;48.14
73024;BME280;61199;47.526;8.538;2023-04-04T08:46:46;96906.53;;;4.17;47.83
73024;BME280;61199;47.526;8.538;2023-04-04T08:49:15;96907.63;;;4.13;47.70
73024;BME280;61199;47.526;8.538;2023-04-04T08:51:42;96911.88;;;4.14;47.37
73024;BME280;61199;47.526;8.538;2023-04-04T08:54:11;96917.13;;;4.13;47.77
73024;BME280;61199;47.526;8.538;2023-04-04T08:56:39;96916.88;;;4.17;47.55
73024;BME280;61199;47.526;8.538;2023-04-04T08:59:05;96905.50;;;4.35;46.30
73024;BME280;61199;47.526;8.538;2023-04-04T09:01:32;96913.13;;;4.38;46.85
73024;BME280;61199;47.526;8.538;2023-04-04T09:03:59;96916.28;;;4.43;46.11
73024;BME280;61199;47.526;8.538;2023-04-04T09:06:26;96909.88;;;4.64;46.26
73024;BME280;61199;47.526;8.538;2023-04-04T09:08:53;96907.66;;;4.58;46.42
73024;BME280;61199;47.526;8.538;2023-04-04T09:11:23;96913.81;;;4.71;45.38
73024;BME280;61199;47.526;8.538;2023-04-04T09:13:51;96915.13;;;4.78;45.46
73024;BME280;61199;47.526;8.538;2023-04-04T09:16:19;96914.00;;;4.68;45.87
73024;BME280;61199;47.526;8.538;2023-04-04T09:18:45;96904.72;;;4.49;46.06
73024;BME280;61199;47.526;8.538;2023-04-04T09:21:12;96903.31;;;4.43;46.62
73024;BME280;61199;47.526;8.538;2023-04-04T09:23:39;96910.34;;;4.41;45.96
73024;BME280;61199;47.526;8.538;2023-04-04T09:26:05;96898.22;;;4.57;46.27
73024;BME280;61199;47.526;8.538;2023-04-04T09:28:32;96912.31;;;4.67;46.19
73024;BME280;61199;47.526;8.538;2023-04-04T09:31:00;96907.66;;;4.88;46.14
73024;BME280;61199;47.526;8.538;2023-04-04T09:33:30;96902.91;;;5.10;45.64
73024;BME280;61199;47.526;8.538;2023-04-04T09:35:58;96898.06;;;5.04;45.08
73024;BME280;61199;47.526;8.538;2023-04-04T09:38:27;96895.56;;;5.16;45.46
73024;BME280;61199;47.526;8.538;2023-04-04T09:40:54;96890.22;;;5.33;44.16
73024;BME280;61199;47.526;8.538;2023-04-04T09:43:23;96886.13;;;5.15;43.10
73024;BME280;61199;47.526;8.538;2023-04-04T09:45:50;96887.97;;;5.13;43.52
73024;BME280;61199;47.526;8.538;2023-04-04T09:48:30;96896.16;;;5.21;43.83
73024;BME280;61199;47.526;8.538;2023-04-04T09:50:58;96902.56;;;5.44;44.01
73024;BME280;61199;47.526;8.538;2023-04-04T09:53:25;96889.75;;;5.68;44.18
73024;BME280;61199;47.526;8.538;2023-04-04T09:55:53;96891.13;;;5.74;43.24
73024;BME280;61199;47.526;8.538;2023-04-04T09:58:27;96896.94;;;5.79;43.07
73024;BME280;61199;47.526;8.538;2023-04-04T10:00:55;96891.13;;;5.74;42.91
73024;BME280;61199;47.526;8.538;2023-04-04T10:03:24;96885.25;;;5.86;42.42
73024;BME280;61199;47.526;8.538;2023-04-04T10:06:05;96898.94;;;5.60;43.15
73024;BME280;61199;47.526;8.538;2023-04-04T10:08:33;96894.13;;;5.68;43.65
73024;BME280;61199;47.526;8.538;2023-04-04T10:11:03;96884.25;;;6.01;42.05
73024;BME280;61199;47.526;8.538;2023-04-04T10:13:36;96894.94;;;6.37;42.67
73024;BME280;61199;47.526;8.538;2023-04-04T10:16:07;96891.22;;;6.67;41.25
73024;BME280;61199;47.526;8.538;2023-04-04T10:18:35;96908.31;;;6.18;41.43
73024;BME280;61199;47.526;8.538;2023-04-04T10:21:03;96904.69;;;6.07;41.85
73024;BME280;61199;47.526;8.538;2023-04-04T10:23:42;96889.66;;;6.12;42.21
73024;BME280;61199;47.526;8.538;2023-04-04T10:26:11;96896.91;;;5.93;43.88
73024;BME280;61199;47.526;8.538;2023-04-04T10:28:38;96894.59;;;6.29;42.88
73024;BME280;61199;47.526;8.538;2023-04-04T10:31:19;96900.47;;;6.59;41.10
73024;BME280;61199;47.526;8.538;2023-04-04T10:34:19;96890.69;;;6.62;41.11
73024;BME280;61199;47.526;8.538;2023-04-04T10:36:53;96896.59;;;6.52;41.32
73024;BME280;61199;47.526;8.538;2023-04-04T10:39:28;96897.88;;;6.59;41.63
73024;BME280;61199;47.526;8.538;2023-04-04T10:41:58;96888.06;;;6.89;41.39
73024;BME280;61199;47.526;8.538;2023-04-04T10:44:30;96894.03;;;7.16;41.07
73024;BME280;61199;47.526;8.538;2023-04-04T10:47:06;96897.78;;;6.99;40.46
73024;BME280;61199;47.526;8.538;2023-04-04T10:49:34;96895.69;;;7.04;40.67
73024;BME280;61199;47.526;8.538;2023-04-04T10:52:02;96899.03;;;7.19;40.60
73024;BME280;61199;47.526;8.538;2023-04-04T10:54:29;96885.28;;;7.17;40.33
73024;BME280;61199;47.526;8.538;2023-04-04T10:56:56;96889.47;;;7.32;40.77
73024;BME280;61199;47.526;8.538;2023-04-04T10:59:26;96880.72;;;7.45;40.61
73024;BME280;61199;47.526;8.538;2023-04-04T11:02:01;96886.53;;;7.61;40.10
73024;BME280;61199;47.526;8.538;2023-04-04T11:07:16;96880.69;;;7.83;38.87
73024;BME280;61199;47.526;8.538;2023-04-04T11:09:51;96879.63;;;7.85;39.36
73024;BME280;61199;47.526;8.538;2023-04-04T11:12:31;96874.06;;;8.02;39.38
73024;BME280;61199;47.526;8.538;2023-04-04T11:20:16;96884.03;;;7.72;38.20
73024;BME280;61199;47.526;8.538;2023-04-04T11:22:43;96870.00;;;7.98;37.83
73024;BME280;61199;47.526;8.538;2023-04-04T11:25:40;96872.47;;;8.12;38.77
73024;BME280;61199;47.526;8.538;2023-04-04T11:28:23;96872.72;;;8.22;37.83
73024;BME280;61199;47.526;8.538;2023-04-04T11:34:03;96870.53;;;8.86;37.58
73024;BME280;61199;47.526;8.538;2023-04-04T11:39:07;96865.84;;;8.68;36.58
73024;BME280;61199;47.526;8.538;2023-04-04T11:44:14;96871.44;;;8.74;36.31
73024;BME280;61199;47.526;8.538;2023-04-04T11:46:41;96869.94;;;8.59;36.01
73024;BME280;61199;47.526;8.538;2023-04-04T11:49:09;96865.00;;;8.67;36.22
73024;BME280;61199;47.526;8.538;2023-04-04T11:51:40;96863.63;;;8.51;36.12
73024;BME280;61199;47.526;8.538;2023-04-04T11:54:14;96862.75;;;8.50;36.33
73024;BME280;61199;47.526;8.538;2023-04-04T11:56:41;96853.78;;;8.88;36.14
73024;BME280;61199;47.526;8.538;2023-04-04T11:59:17;96857.69;;;8.83;35.69
73024;BME280;61199;47.526;8.538;2023-04-04T12:01:44;96858.09;;;8.66;34.64
73024;BME280;61199;47.526;8.538;2023-04-04T12:04:11;96846.28;;;8.50;35.30
73024;BME280;61199;47.526;8.538;2023-04-04T12:06:38;96849.47;;;8.53;35.92
73024;BME280;61199;47.526;8.538;2023-04-04T12:09:05;96847.13;;;8.84;35.33
73024;BME280;61199;47.526;8.538;2023-04-04T12:11:35;96840.78;;;9.10;33.82
73024;BME280;61199;47.526;8.538;2023-04-04T12:14:02;96842.00;;;9.28;33.79
73024;BME280;61199;47.526;8.538;2023-04-04T12:16:28;96843.56;;;9.53;32.74
73024;BME280;61199;47.526;8.538;2023-04-04T12:18:56;96841.09;;;9.73;32.28
73024;BME280;61199;47.526;8.538;2023-04-04T12:21:25;96850.72;;;9.40;33.31
73024;BME280;61199;47.526;8.538;2023-04-04T12:23:52;96852.63;;;9.71;32.84
73024;BME280;61199;47.526;8.538;2023-04-04T12:26:20;96843.59;;;9.86;32.97
73024;BME280;61199;47.526;8.538;2023-04-04T12:28:47;96847.84;;;9.98;32.96
73024;BME280;61199;47.526;8.538;2023-04-04T12:31:14;96838.22;;;9.76;33.28
73024;BME280;61199;47.526;8.538;2023-04-04T12:33:41;96844.41;;;9.97;33.60
73024;BME280;61199;47.526;8.538;2023-04-04T12:36:08;96847.53;;;9.80;33.76
73024;BME280;61199;47.526;8.538;2023-04-04T12:38:54;96849.78;;;10.18;32.90
73024;BME280;61199;47.526;8.538;2023-04-04T12:41:22;96848.72;;;10.09;32.84
73024;BME280;61199;47.526;8.538;2023-04-04T12:43:48;96843.72;;;9.95;33.08
73024;BME280;61199;47.526;8.538;2023-04-04T12:46:15;96834.63;;;10.21;32.86
73024;BME280;61199;47.526;8.538;2023-04-04T12:48:42;96835.88;;;10.06;32.38
73024;BME280;61199;47.526;8.538;2023-04-04T12:51:09;96825.03;;;10.00;33.04
73024;BME280;61199;47.526;8.538;2023-04-04T12:53:50;96844.16;;;10.00;33.02
73024;BME280;61199;47.526;8.538;2023-04-04T12:56:18;96839.91;;;9.99;33.21
73024;BME280;61199;47.526;8.538;2023-04-04T12:58:45;96841.44;;;10.02;32.63
73024;BME280;61199;47.526;8.538;2023-04-04T13:01:14;96838.41;;;10.50;31.51
73024;BME280;61199;47.526;8.538;2023-04-04T13:03:40;96843.72;;;10.60;31.23
73024;BME280;61199;47.526;8.538;2023-04-04T13:06:31;96835.00;;;10.17;32.09
73024;BME280;61199;47.526;8.538;2023-04-04T13:08:58;96836.09;;;10.25;32.18
73024;BME280;61199;47.526;8.538;2023-04-04T13:11:24;96833.72;;;10.54;31.50
73024;BME280;61199;47.526;8.538;2023-04-04T13:14:02;96829.69;;;10.50;31.26
73024;BME280;61199;47.526;8.538;2023-04-04T13:18:57;96836.19;;;10.66;34.80
73024;BME280;61199;47.526;8.538;2023-04-04T13:21:25;96826.13;;;10.82;31.30
73024;BME280;61199;47.526;8.538;2023-04-04T13:23:51;96816.16;;;11.17;30.74
73024;BME280;61199;47.526;8.538;2023-04-04T13:26:18;96830.34;;;11.35;30.43
73024;BME280;61199;47.526;8.538;2023-04-04T13:28:44;96827.50;;;11.68;30.10
73024;BME280;61199;47.526;8.538;2023-04-04T13:31:10;96829.38;;;11.36;29.77
73024;BME280;61199;47.526;8.538;2023-04-04T13:33:38;96824.34;;;11.24;29.44